Time;durP1;ratioP1;P1;durP2;ratioP2;P2;SDS_P1;SDS_P2;PMS_P1;PMS_P2;Temp;Humidity;BMP_temperature;BMP_pressure;BME280_temperature;BME280_humidity;BME280_pressure;Samples;Min_cycle;Max_cycle;Signal;HPM_P1;HPM_P2
2022/04/24 00:01:06;;;;;;;1.25;1.15;;;;;;;8.43;100.00;90493.75;5011695;28;20423;-63
2022/04/24 00:03:32;;;;;;;1.40;1.30;;;;;;;8.29;100.00;90507.06;5011568;28;20038;-63
2022/04/24 00:05:58;;;;;;;0.90;0.90;;;;;;;8.15;100.00;90503.69;5011566;28;20041;-63
2022/04/24 00:08:23;;;;;;;0.90;0.90;;;;;;;7.86;100.00;90508.66;5011703;28;20038;-63
2022/04/24 00:10:49;;;;;;;1.10;1.00;;;;;;;7.81;100.00;90507.72;5011417;28;20034;-63
2022/04/24 00:13:14;;;;;;;1.20;1.10;;;;;;;7.92;100.00;90500.31;5011463;28;20030;-63
2022/04/24 00:15:40;;;;;;;1.25;1.15;;;;;;;7.97;100.00;90492.22;5011714;28;20050;-63
2022/04/24 00:18:06;;;;;;;0.93;0.93;;;;;;;7.95;100.00;90491.75;5011666;28;20042;-66
2022/04/24 00:20:31;;;;;;;1.30;1.20;;;;;;;7.96;100.00;90485.38;4990482;28;20073;-65
2022/04/24 00:22:56;;;;;;;1.35;1.25;;;;;;;8.00;100.00;90490.84;4991855;28;20139;-64
2022/04/24 00:25:22;;;;;;;1.42;1.33;;;;;;;7.93;100.00;90496.59;4991806;28;20042;-64
2022/04/24 00:27:47;;;;;;;2.28;1.20;;;;;;;7.92;100.00;90502.97;4991797;28;20030;-65
2022/04/24 00:30:13;;;;;;;1.25;1.13;;;;;;;7.94;100.00;90503.44;4991843;28;20046;-64
2022/04/24 00:32:38;;;;;;;1.40;1.30;;;;;;;7.97;100.00;90504.69;4992423;28;20497;-64
2022/04/24 00:35:04;;;;;;;0.90;0.90;;;;;;;8.10;100.00;90499.31;4995915;28;20112;-64
2022/04/24 00:37:30;;;;;;;1.25;1.20;;;;;;;8.13;100.00;90505.88;4995659;28;20439;-65
2022/04/24 00:39:56;;;;;;;0.90;0.90;;;;;;;8.15;100.00;90497.63;4995785;28;20030;-65
2022/04/24 00:42:21;;;;;;;0.80;0.80;;;;;;;8.06;100.00;90489.66;4995739;28;20045;-64
2022/04/24 00:44:47;;;;;;;1.08;1.08;;;;;;;8.16;100.00;90499.97;4995752;28;20160;-65
2022/04/24 00:47:21;;;;;;;1.10;1.10;;;;;;;8.23;100.00;90494.25;4995701;28;20042;-65
2022/04/24 00:49:46;;;;;;;1.10;1.10;;;;;;;8.23;100.00;90500.34;4995544;28;20042;-65
2022/04/24 00:52:13;;;;;;;1.35;1.23;;;;;;;8.25;100.00;90498.16;4995500;28;20101;-65
2022/04/24 00:54:39;;;;;;;1.33;1.23;;;;;;;8.31;100.00;90496.94;4995575;28;20504;-65
2022/04/24 00:57:06;;;;;;;1.02;1.02;;;;;;;8.31;100.00;90506.75;4995449;28;20042;-65
2022/04/24 00:59:31;;;;;;;1.52;1.17;;;;;;;8.33;100.00;90497.41;4994074;28;20034;-65
2022/04/24 01:01:59;;;;;;;3.75;2.90;;;;;;;8.32;100.00;90503.00;4995392;28;20489;-64
2022/04/24 01:04:25;;;;;;;1.17;1.08;;;;;;;8.19;100.00;90499.34;4995314;28;20132;-64
2022/04/24 01:06:50;;;;;;;0.90;0.90;;;;;;;8.05;100.00;90496.03;4995388;28;20088;-64
2022/04/24 01:09:21;;;;;;;1.35;1.25;;;;;;;8.04;100.00;90499.75;4995134;28;20090;-64
2022/04/24 01:11:49;;;;;;;1.20;1.10;;;;;;;7.99;100.00;90505.16;4995164;28;20034;-64
2022/04/24 01:14:18;;;;;;;1.30;1.27;;;;;;;7.90;100.00;90502.50;4995170;28;20408;-65
2022/04/24 01:16:46;;;;;;;1.10;1.10;;;;;;;7.88;100.00;90504.63;4995109;28;20035;-65
2022/04/24 01:19:12;;;;;;;0.95;0.95;;;;;;;7.82;100.00;90500.56;4995026;28;20042;-65
2022/04/24 01:21:40;;;;;;;1.45;1.10;;;;;;;7.84;100.00;90497.59;5009530;28;20054;-64
2022/04/24 01:24:07;;;;;;;1.65;1.55;;;;;;;7.89;100.00;90505.41;5014553;28;20084;-64
2022/04/24 01:26:34;;;;;;;1.20;1.10;;;;;;;7.89;100.00;90500.91;5014463;28;20458;-64
2022/04/24 01:28:59;;;;;;;0.95;0.95;;;;;;;7.83;100.00;90499.47;5014350;28;20096;-64
2022/04/24 01:31:25;;;;;;;0.90;0.90;;;;;;;7.90;100.00;90507.00;5014370;28;20041;-64
2022/04/24 01:33:50;;;;;;;1.58;1.48;;;;;;;7.91;100.00;90508.56;5014362;28;20057;-64
2022/04/24 01:36:16;;;;;;;1.08;1.08;;;;;;;7.93;100.00;90509.81;5014296;28;20037;-64
2022/04/24 01:38:42;;;;;;;1.10;1.02;;;;;;;7.83;100.00;90507.41;5014456;28;20042;-65
2022/04/24 01:41:08;;;;;;;0.90;0.90;;;;;;;7.86;100.00;90516.59;5014289;28;20026;-64
2022/04/24 01:43:36;;;;;;;0.95;0.95;;;;;;;7.73;100.00;90505.00;5014130;28;20117;-64
2022/04/24 01:46:05;;;;;;;0.90;0.90;;;;;;;7.75;100.00;90511.56;5014058;28;20045;-64
2022/04/24 01:48:33;;;;;;;0.90;0.90;;;;;;;7.62;100.00;90507.13;5014024;28;20045;-64
2022/04/24 01:51:02;;;;;;;1.15;1.05;;;;;;;7.61;100.00;90518.78;5014206;28;20038;-63
2022/04/24 01:53:31;;;;;;;1.05;1.05;;;;;;;7.56;100.00;90502.22;5014194;28;20040;-63
2022/04/24 01:56:01;;;;;;;1.23;1.13;;;;;;;7.58;100.00;90513.31;5013947;28;20038;-64
2022/04/24 01:58:27;;;;;;;1.10;1.10;;;;;;;7.62;100.00;90506.34;5013779;28;20045;-64
2022/04/24 02:00:53;;;;;;;1.20;0.90;;;;;;;7.61;100.00;90510.84;5013869;28;20030;-63
2022/04/24 02:03:21;;;;;;;0.90;0.90;;;;;;;7.59;100.00;90507.72;5013816;28;20050;-64
2022/04/24 02:05:46;;;;;;;1.30;1.20;;;;;;;7.53;100.00;90505.47;5013731;28;20045;-64
2022/04/24 02:08:12;;;;;;;1.33;1.23;;;;;;;7.58;100.00;90515.97;5013591;28;20037;-64
2022/04/24 02:10:38;;;;;;;1.00;1.00;;;;;;;7.53;100.00;90514.19;5013646;28;20038;-65
2022/04/24 02:13:04;;;;;;;1.00;1.00;;;;;;;7.49;100.00;90516.66;5013654;28;20038;-64
2022/04/24 02:15:29;;;;;;;1.08;1.08;;;;;;;7.45;100.00;90513.06;5013887;28;20578;-64
2022/04/24 02:17:56;;;;;;;1.00;1.00;;;;;;;7.32;100.00;90513.88;5013541;28;20045;-65
2022/04/24 02:20:22;;;;;;;1.20;1.10;;;;;;;7.34;100.00;90516.22;5018448;28;20503;-64
2022/04/24 02:22:48;;;;;;;1.15;1.10;;;;;;;7.31;100.00;90517.59;5033155;28;20037;-64
2022/04/24 02:25:13;;;;;;;0.98;0.98;;;;;;;7.29;100.00;90519.00;5033240;28;20049;-65
2022/04/24 02:27:39;;;;;;;2.30;1.33;;;;;;;7.22;100.00;90522.03;5032913;28;20036;-65
2022/04/24 02:30:05;;;;;;;0.98;0.90;;;;;;;7.15;100.00;90519.81;5032992;28;20042;-65
2022/04/24 02:32:30;;;;;;;1.15;1.02;;;;;;;7.09;100.00;90514.91;5032898;28;20037;-65
2022/04/24 02:34:55;;;;;;;0.80;0.80;;;;;;;7.11;100.00;90524.13;5033104;28;20071;-65
2022/04/24 02:37:22;;;;;;;0.90;0.90;;;;;;;7.14;100.00;90518.25;5032956;28;20076;-65
2022/04/24 02:39:47;;;;;;;1.52;1.02;;;;;;;7.09;100.00;90514.91;5032881;28;20132;-64
2022/04/24 02:42:13;;;;;;;1.75;1.65;;;;;;;7.11;100.00;90524.13;5033269;28;20132;-65
2022/04/24 02:44:39;;;;;;;0.90;0.90;;;;;;;7.05;100.00;90529.81;5032878;28;20064;-64
2022/04/24 02:47:05;;;;;;;0.93;0.93;;;;;;;6.97;100.00;90528.66;5032790;28;20521;-65
2022/04/24 02:49:30;;;;;;;1.08;1.00;;;;;;;6.74;100.00;90525.13;5032751;28;20063;-63
2022/04/24 02:51:56;;;;;;;1.10;1.10;;;;;;;6.73;100.00;90526.22;5032590;28;20033;-65
2022/04/24 02:54:21;;;;;;;1.17;1.17;;;;;;;6.65;100.00;90524.28;5032642;28;20029;-64
2022/04/24 02:56:46;;;;;;;1.00;1.00;;;;;;;6.60;100.00;90524.34;5032012;28;20029;-64
2022/04/24 02:59:15;;;;;;;1.00;1.00;;;;;;;6.58;100.00;90518.59;5032474;28;20025;-64
2022/04/24 03:01:40;;;;;;;1.02;1.00;;;;;;;6.58;100.00;90526.50;5032479;28;20091;-65
2022/04/24 03:04:06;;;;;;;1.00;1.00;;;;;;;6.69;100.00;90527.88;5032456;28;20037;-64
2022/04/24 03:06:32;;;;;;;2.17;2.08;;;;;;;6.75;100.00;90515.34;5032458;28;20406;-64
2022/04/24 03:08:58;;;;;;;1.38;1.25;;;;;;;6.81;100.00;90512.31;5171666;23;20507;-63
2022/04/24 03:11:23;;;;;;;0.98;0.98;;;;;;;6.90;100.00;90523.75;5030102;28;20037;-63
2022/04/24 03:13:48;;;;;;;0.90;0.90;;;;;;;6.98;100.00;90508.28;5032307;28;20025;-63
2022/04/24 03:16:14;;;;;;;1.40;1.30;;;;;;;6.99;100.00;90521.22;5032486;28;20151;-63
2022/04/24 03:18:40;;;;;;;1.00;1.00;;;;;;;6.94;100.00;90523.94;5032310;28;20467;-64
2022/04/24 03:21:05;;;;;;;0.90;0.90;;;;;;;6.97;100.00;90530.50;5032441;28;20025;-63
2022/04/24 03:23:31;;;;;;;1.02;1.02;;;;;;;7.03;100.00;90531.97;5032017;28;20478;-63
2022/04/24 03:25:57;;;;;;;1.00;1.00;;;;;;;7.03;100.00;90532.75;5032085;28;20064;-63
2022/04/24 03:28:22;;;;;;;3.25;2.10;;;;;;;7.06;100.00;90545.38;5031892;28;20029;-63
2022/04/24 03:30:48;;;;;;;0.95;0.95;;;;;;;7.03;100.00;90547.84;5031898;28;20105;-63
2022/04/24 03:33:13;;;;;;;1.05;1.05;;;;;;;6.96;100.00;90550.09;5034928;28;20025;-64
2022/04/24 03:35:39;;;;;;;0.90;0.90;;;;;;;6.99;100.00;90552.16;5044361;28;20033;-64
2022/04/24 03:38:04;;;;;;;2.58;1.35;;;;;;;6.90;100.00;90544.13;5034937;28;20026;-64
2022/04/24 03:40:30;;;;;;;1.52;1.42;;;;;;;6.86;100.00;90538.66;5031833;28;20037;-63
2022/04/24 03:42:55;;;;;;;0.82;0.82;;;;;;;6.90;100.00;90544.13;5031835;28;20083;-64
2022/04/24 03:45:21;;;;;;;1.90;1.30;;;;;;;6.82;100.00;90547.47;5031600;28;20036;-64
2022/04/24 03:47:50;;;;;;;0.98;0.98;;;;;;;6.84;100.00;90553.25;5031601;28;20029;-64
2022/04/24 03:50:15;;;;;;;1.10;1.10;;;;;;;6.77;100.00;90550.19;5031163;28;20048;-64
2022/04/24 03:52:41;;;;;;;1.80;1.70;;;;;;;6.78;100.00;90557.81;5031039;28;20026;-64
2022/04/24 03:55:07;;;;;;;1.23;1.17;;;;;;;6.65;100.00;90556.00;5030800;28;20461;-64
2022/04/24 03:57:33;;;;;;;0.90;0.90;;;;;;;6.52;100.00;90560.19;5031488;28;20057;-64
2022/04/24 03:59:59;;;;;;;1.35;1.00;;;;;;;6.36;100.00;90550.97;5031174;28;20115;-64
2022/04/24 04:02:25;;;;;;;4.18;2.58;;;;;;;6.33;100.00;90548.91;5031443;28;20088;-64
2022/04/24 04:04:50;;;;;;;0.95;0.82;;;;;;;6.30;100.00;90563.47;5031358;28;20033;-64
2022/04/24 04:07:16;;;;;;;1.05;1.05;;;;;;;6.42;100.00;90570.16;5030483;28;20457;-64
2022/04/24 04:09:41;;;;;;;3.05;1.92;;;;;;;6.51;100.00;90568.41;5042573;28;20050;-63
2022/04/24 04:12:07;;;;;;;1.20;1.10;;;;;;;6.66;100.00;90562.84;5051154;28;20116;-63
2022/04/24 04:14:33;;;;;;;3.00;1.42;;;;;;;6.86;100.00;90573.00;5051227;28;20100;-64
2022/04/24 04:16:58;;;;;;;1.00;1.00;;;;;;;7.01;100.00;90571.16;5051179;28;20491;-64
2022/04/24 04:19:24;;;;;;;1.20;1.10;;;;;;;7.05;100.00;90566.84;5051064;28;20025;-63
2022/04/24 04:21:50;;;;;;;1.48;1.40;;;;;;;7.26;100.00;90575.94;5051080;28;20525;-64
2022/04/24 04:24:15;;;;;;;1.15;1.10;;;;;;;7.36;100.00;90577.56;5050729;28;20091;-64
2022/04/24 04:26:42;;;;;;;1.00;1.00;;;;;;;7.47;100.00;90578.91;5050957;28;20421;-63
2022/04/24 04:29:08;;;;;;;1.20;1.20;;;;;;;7.63;100.00;90587.31;5051046;28;20029;-64
2022/04/24 04:31:34;;;;;;;0.90;0.90;;;;;;;7.80;100.00;90582.94;5050939;28;20029;-63
2022/04/24 04:33:59;;;;;;;1.60;1.50;;;;;;;7.98;100.00;90581.19;5051047;28;20811;-63
2022/04/24 04:36:25;;;;;;;1.33;1.23;;;;;;;8.12;100.00;90583.78;5050985;28;20048;-63
2022/04/24 04:38:50;;;;;;;1.10;1.10;;;;;;;8.26;100.00;90589.03;5050860;28;20036;-64
2022/04/24 04:41:16;;;;;;;1.67;1.58;;;;;;;8.40;100.00;90579.94;5051002;28;20044;-64
2022/04/24 04:43:41;;;;;;;1.25;1.20;;;;;;;8.54;100.00;90585.19;5033034;28;20033;-64
2022/04/24 04:46:07;;;;;;;2.30;1.73;;;;;;;8.70;100.00;90581.03;5050862;28;20029;-64
2022/04/24 04:48:32;;;;;;;0.85;0.85;;;;;;;9.65;100.00;90575.22;5050577;28;20399;-65
2022/04/24 04:50:57;;;;;;;1.63;1.52;;;;;;;11.61;99.73;90576.19;5032851;28;20033;-64
2022/04/24 04:53:23;;;;;;;1.55;1.48;;;;;;;13.13;81.90;90582.72;5050799;28;20028;-65
2022/04/24 04:55:49;;;;;;;1.27;1.10;;;;;;;14.00;73.91;90577.06;5050590;28;20091;-64
2022/04/24 04:58:15;;;;;;;3.20;2.15;;;;;;;14.58;68.81;90560.75;5050813;28;20414;-65
2022/04/24 05:00:41;;;;;;;6.40;2.20;;;;;;;15.24;66.50;90568.97;5050690;28;20513;-65
2022/04/24 05:03:07;;;;;;;2.35;1.00;;;;;;;16.29;63.07;90578.31;5050644;28;20032;-63
2022/04/24 05:05:39;;;;;;;1.55;1.38;;;;;;;17.48;58.14;90572.94;5050726;28;20033;-64
2022/04/24 05:08:05;;;;;;;1.08;1.08;;;;;;;18.23;55.24;90563.34;5050559;28;20652;-65
2022/04/24 05:10:30;;;;;;;2.50;1.08;;;;;;;18.45;52.90;90564.41;5050428;28;20049;-65
2022/04/24 05:12:56;;;;;;;1.13;1.10;;;;;;;19.02;52.35;90568.59;5050553;28;20033;-65
2022/04/24 05:15:21;;;;;;;1.50;1.40;;;;;;;19.38;50.32;90574.38;5050564;28;20049;-65
2022/04/24 05:17:47;;;;;;;1.38;1.27;;;;;;;19.35;49.60;90573.19;5050561;28;20033;-65
2022/04/24 05:20:13;;;;;;;1.02;1.02;;;;;;;18.55;49.55;90563.78;5053483;28;20025;-65
2022/04/24 05:22:40;;;;;;;1.25;1.02;;;;;;;20.36;47.73;90559.38;5054508;28;20534;-65
2022/04/24 05:25:07;;;;;;;1.27;1.17;;;;;;;22.16;44.03;90563.06;5054188;28;20111;-65
2022/04/24 05:27:33;;;;;;;1.40;1.30;;;;;;;23.96;41.06;90554.66;5054178;28;20118;-65
2022/04/24 05:29:58;;;;;;;2.05;1.83;;;;;;;25.75;38.05;90564.53;5053930;28;20033;-65
2022/04/24 05:32:24;;;;;;;3.33;1.98;;;;;;;26.88;35.89;90570.16;5053918;28;20118;-65
2022/04/24 05:34:50;;;;;;;1.50;1.40;;;;;;;27.91;34.26;90568.13;5054037;28;20095;-65
2022/04/24 05:37:16;;;;;;;1.98;1.42;;;;;;;28.55;32.83;90563.94;5054247;28;20108;-65
2022/04/24 05:39:41;;;;;;;3.03;2.45;;;;;;;29.59;32.03;90569.50;5054094;28;20554;-66
2022/04/24 05:42:07;;;;;;;2.45;1.10;;;;;;;29.25;31.60;90564.56;5054067;28;20024;-66
2022/04/24 05:44:32;;;;;;;0.90;0.90;;;;;;;29.01;31.80;90567.50;5053805;28;20028;-65
2022/04/24 05:46:59;;;;;;;1.20;1.10;;;;;;;29.63;30.77;90570.94;5054042;28;20028;-65
2022/04/24 05:49:25;;;;;;;1.63;1.20;;;;;;;28.48;31.79;90566.09;5053697;28;20048;-66
2022/04/24 05:51:50;;;;;;;2.03;1.35;;;;;;;27.94;32.14;90559.09;5053686;28;20017;-65
2022/04/24 05:54:16;;;;;;;2.97;1.67;;;;;;;27.07;33.25;90569.44;5053885;28;20032;-65
2022/04/24 05:56:41;;;;;;;3.13;1.92;;;;;;;27.88;32.85;90560.00;5053513;28;20482;-66
2022/04/24 05:59:08;;;;;;;3.30;2.65;;;;;;;28.55;32.30;90563.94;5053568;28;20459;-66
2022/04/24 06:01:34;;;;;;;4.63;1.40;;;;;;;30.02;31.03;90560.81;5053603;28;20064;-66
2022/04/24 06:04:00;;;;;;;0.90;0.90;;;;;;;31.15;29.96;90564.69;5055884;28;20111;-66
2022/04/24 06:06:25;;;;;;;5.72;3.35;;;;;;;32.01;28.92;90569.91;5060467;28;20410;-66
2022/04/24 06:08:51;;;;;;;1.05;0.90;;;;;;;32.53;28.10;90565.63;5057401;28;20079;-66
2022/04/24 06:11:18;;;;;;;1.77;1.10;;;;;;;32.56;27.86;90561.97;5052393;28;20033;-65
2022/04/24 06:13:45;;;;;;;1.25;0.80;;;;;;;33.11;27.42;90559.34;5060241;28;20037;-65
2022/04/24 06:16:11;;;;;;;0.73;0.73;;;;;;;32.17;28.27;90556.72;5067378;28;20031;-65
2022/04/24 06:18:36;;;;;;;1.42;1.20;;;;;;;32.34;29.12;90562.00;5072944;28;20028;-66
2022/04/24 06:21:02;;;;;;;3.50;1.00;;;;;;;33.46;27.91;90557.88;5073041;28;20029;-66
2022/04/24 06:23:30;;;;;;;1.10;1.00;;;;;;;30.74;29.81;90557.41;5072775;28;20112;-65
2022/04/24 06:25:55;;;;;;;1.92;1.35;;;;;;;29.44;32.22;90561.66;5072800;28;20099;-64
2022/04/24 06:28:21;;;;;;;2.30;2.00;;;;;;;30.30;31.28;90568.22;5072926;28;20489;-65
2022/04/24 06:30:47;;;;;;;1.83;1.30;;;;;;;31.17;29.87;90564.25;5071960;28;20035;-64
2022/04/24 06:33:13;;;;;;;3.72;1.85;;;;;;;31.77;29.48;90562.16;5072812;28;20032;-66
2022/04/24 06:35:39;;;;;;;2.35;2.08;;;;;;;29.68;31.50;90556.72;5054279;28;20033;-65
2022/04/24 06:38:06;;;;;;;2.22;1.20;;;;;;;32.23;29.09;90551.41;5052388;28;20072;-66
2022/04/24 06:40:32;;;;;;;1.50;1.40;;;;;;;29.93;31.00;90552.47;5052183;28;20021;-64
2022/04/24 06:43:00;;;;;;;1.23;1.13;;;;;;;31.92;30.68;90556.91;5052023;28;20040;-65
2022/04/24 06:45:30;;;;;;;11.57;2.08;;;;;;;32.64;29.81;90549.41;5051990;28;20025;-66
2022/04/24 06:48:01;;;;;;;1.67;1.50;;;;;;;30.96;32.58;90563.00;5058465;28;20036;-65
2022/04/24 06:50:28;;;;;;;2.15;1.65;;;;;;;31.43;31.40;90556.69;5053824;28;20068;-65
2022/04/24 06:53:06;;;;;;;1.20;1.10;;;;;;;31.72;31.15;90557.22;5072506;28;20024;-66
2022/04/24 06:55:33;;;;;;;1.67;1.25;;;;;;;32.54;29.92;90550.63;5035015;28;20029;-65
2022/04/24 06:58:00;;;;;;;2.03;1.50;;;;;;;31.50;31.66;90548.19;5072262;28;20505;-65
2022/04/24 07:00:27;;;;;;;1.45;1.35;;;;;;;31.60;31.52;90549.78;5072140;28;20090;-65
2022/04/24 07:02:52;;;;;;;3.03;1.00;;;;;;;29.87;33.77;90535.78;5072143;28;20553;-65
2022/04/24 07:05:23;;;;;;;1.10;1.00;;;;;;;30.70;32.77;90549.31;5052329;28;20104;-65
2022/04/24 07:07:48;;;;;;;5.95;2.28;;;;;;;30.51;34.28;90542.06;5052120;28;20383;-65
2022/04/24 07:10:14;;;;;;;1.17;1.00;;;;;;;31.32;31.80;90542.56;5050746;28;20529;-65
2022/04/24 07:12:50;;;;;;;1.30;1.20;;;;;;;30.78;33.49;90538.09;5051007;28;20090;-64
2022/04/24 07:15:17;;;;;;;1.80;1.25;;;;;;;30.99;33.38;90534.63;5051727;28;20028;-65
2022/04/24 07:17:46;;;;;;;1.52;1.02;;;;;;;31.03;32.30;90529.00;5049936;28;20048;-65
2022/04/24 07:20:13;;;;;;;1.00;1.00;;;;;;;31.27;31.71;90547.41;5050762;28;20060;-65
2022/04/24 07:22:50;;;;;;;1.50;1.23;;;;;;;28.66;35.42;90533.56;5051761;28;20108;-64
2022/04/24 07:25:20;;;;;;;6.70;1.25;;;;;;;29.69;32.25;90538.28;5047451;28;20064;-65
2022/04/24 07:27:46;;;;;;;0.93;0.93;;;;;;;31.85;30.35;90541.41;5050565;28;20033;-65
2022/04/24 07:30:13;;;;;;;1.23;1.15;;;;;;;31.62;30.25;90543.84;5046909;28;20028;-65
2022/04/24 07:32:42;;;;;;;0.70;0.70;;;;;;;31.66;30.40;90544.47;5042094;28;20507;-65
2022/04/24 07:35:13;;;;;;;4.45;1.25;;;;;;;33.48;28.63;90544.41;5034906;28;20042;-65
2022/04/24 07:37:38;;;;;;;0.80;0.80;;;;;;;31.52;29.97;90535.53;5039493;28;20494;-66
2022/04/24 07:40:15;;;;;;;0.82;0.82;;;;;;;32.91;28.04;90546.75;5041816;28;20029;-65
2022/04/24 07:42:45;;;;;;;0.93;0.93;;;;;;;33.54;27.74;90542.53;5047676;28;20083;-65
2022/04/24 07:45:11;;;;;;;3.65;3.00;;;;;;;31.54;30.52;90537.81;5050224;28;20087;-65
2022/04/24 07:47:36;;;;;;;1.15;1.00;;;;;;;33.08;28.22;90538.22;5050952;28;20068;-65
2022/04/24 07:50:03;;;;;;;2.28;1.55;;;;;;;34.62;27.67;90538.47;5050283;28;20060;-66
2022/04/24 07:52:28;;;;;;;1.38;1.08;;;;;;;31.07;30.21;90540.63;5049609;28;20363;-66
2022/04/24 07:54:54;;;;;;;1.15;1.10;;;;;;;32.10;29.13;90529.47;5050814;28;20103;-65
2022/04/24 07:57:21;;;;;;;1.25;1.13;;;;;;;32.24;30.28;90535.66;5050644;28;20064;-65
2022/04/24 07:59:46;;;;;;;1.95;1.20;;;;;;;32.20;28.87;90532.28;5050722;28;20100;-64
2022/04/24 08:02:12;;;;;;;1.35;1.25;;;;;;;31.56;30.56;90532.63;5050608;28;20121;-63
2022/04/24 08:04:37;;;;;;;1.27;1.17;;;;;;;34.15;27.97;90534.34;5050468;28;20033;-63
2022/04/24 08:07:03;;;;;;;1.02;0.93;;;;;;;33.88;27.77;90527.66;5051045;28;20024;-65
2022/04/24 08:09:29;;;;;;;1.67;1.15;;;;;;;33.36;28.46;90534.28;5050055;28;20044;-65
2022/04/24 08:11:54;;;;;;;0.90;0.90;;;;;;;30.24;29.66;90523.31;5050190;28;20029;-65
2022/04/24 08:14:20;;;;;;;1.15;1.05;;;;;;;31.41;29.59;90528.88;5050769;28;20099;-64
2022/04/24 08:16:46;;;;;;;2.10;1.35;;;;;;;32.28;29.97;90517.03;5051048;28;20041;-64
2022/04/24 08:19:11;;;;;;;2.38;1.85;;;;;;;32.98;28.80;90520.88;5050386;28;20557;-64
2022/04/24 08:21:37;;;;;;;1.00;1.00;;;;;;;31.80;29.22;90517.25;5050866;28;20029;-65
2022/04/24 08:24:02;;;;;;;1.15;1.05;;;;;;;31.49;30.73;90519.16;5049994;28;20025;-65
2022/04/24 08:26:28;;;;;;;0.88;0.88;;;;;;;31.69;30.00;90513.31;5015996;28;20033;-60
2022/04/24 08:28:53;;;;;;;1.40;1.00;;;;;;;31.25;29.26;90516.09;5050262;28;20025;-61
2022/04/24 08:31:18;;;;;;;0.70;0.70;;;;;;;30.50;30.20;90507.59;5050638;28;20406;-60
2022/04/24 08:33:44;;;;;;;1.08;0.98;;;;;;;28.82;33.05;90503.44;5050228;28;20438;-62
2022/04/24 08:36:09;;;;;;;0.80;0.80;;;;;;;28.93;33.05;90506.69;5049843;28;20071;-62
2022/04/24 08:38:35;;;;;;;2.63;1.40;;;;;;;29.45;34.24;90502.91;5046669;28;20075;-62
2022/04/24 08:41:00;;;;;;;1.25;1.02;;;;;;;30.14;30.88;90507.16;5049857;28;20396;-63
2022/04/24 08:43:26;;;;;;;1.00;0.90;;;;;;;29.83;31.60;90502.22;5050353;28;20073;-61
2022/04/24 08:45:52;;;;;;;1.30;1.20;;;;;;;30.08;31.14;90498.72;5050663;28;20037;-62
2022/04/24 08:48:19;;;;;;;1.63;1.23;;;;;;;30.89;30.55;90505.53;5049572;28;20094;-63
2022/04/24 08:50:44;;;;;;;1.30;0.80;;;;;;;32.17;30.09;90506.41;5050488;28;20028;-64
2022/04/24 08:53:11;;;;;;;1.15;1.05;;;;;;;31.28;30.34;90501.47;5050140;28;20437;-64
2022/04/24 08:55:36;;;;;;;0.85;0.85;;;;;;;31.45;28.97;90485.53;5053934;28;20025;-63
2022/04/24 08:58:02;;;;;;;1.35;1.10;;;;;;;30.60;29.56;90492.72;5053228;28;20029;-63
2022/04/24 09:00:29;;;;;;;1.23;1.00;;;;;;;30.09;31.59;90487.31;5053987;28;20041;-63
2022/04/24 09:02:57;;;;;;;0.88;0.82;;;;;;;28.72;31.32;90479.06;5058830;28;20095;-63
2022/04/24 09:05:23;;;;;;;0.75;0.75;;;;;;;30.98;30.70;90492.66;5072476;28;20032;-63
2022/04/24 09:07:52;;;;;;;2.17;1.05;;;;;;;31.23;29.80;90488.28;5073685;28;20112;-62
2022/04/24 09:10:18;;;;;;;2.58;1.52;;;;;;;32.12;29.19;90476.72;5073487;28;20067;-62
2022/04/24 09:12:51;;;;;;;1.25;0.82;;;;;;;30.31;31.83;90494.88;5073765;28;20017;-62
2022/04/24 09:15:18;;;;;;;2.00;1.70;;;;;;;30.04;30.76;90493.38;5074012;28;20035;-62
2022/04/24 09:17:43;;;;;;;0.98;0.98;;;;;;;30.00;30.22;90489.19;5073208;28;20024;-62
2022/04/24 09:20:17;;;;;;;0.90;0.90;;;;;;;30.94;31.07;90483.00;5073801;28;20090;-62
2022/04/24 09:22:44;;;;;;;2.38;1.48;;;;;;;33.03;29.58;90488.00;5073541;28;20494;-61
2022/04/24 09:25:12;;;;;;;1.10;1.00;;;;;;;32.25;29.85;90488.41;5073485;28;20031;-61
2022/04/24 09:27:37;;;;;;;1.45;1.35;;;;;;;32.66;30.46;90476.13;5073667;28;20432;-61
2022/04/24 09:30:04;;;;;;;0.85;0.85;;;;;;;30.61;31.81;90477.81;5073568;28;20036;-62
2022/04/24 09:32:36;;;;;;;2.22;1.73;;;;;;;30.47;32.29;90481.03;5073285;28;20031;-66
2022/04/24 09:35:02;;;;;;;3.05;2.05;;;;;;;30.25;32.25;90471.94;5071647;28;20506;-69
2022/04/24 09:37:38;;;;;;;1.38;1.23;;;;;;;31.42;31.25;90467.19;5044348;28;20494;-66
2022/04/24 09:40:04;;;;;;;1.20;1.10;;;;;;;31.55;31.31;90468.63;5068232;28;20140;-66
2022/04/24 09:42:30;;;;;;;1.73;1.15;;;;;;;30.23;32.82;90466.91;5064620;28;20052;-64
2022/04/24 09:44:55;;;;;;;0.70;0.70;;;;;;;30.84;31.56;90470.41;5070013;28;20478;-65
2022/04/24 09:47:25;;;;;;;1.05;0.95;;;;;;;29.71;33.12;90459.88;5057820;28;20021;-65
2022/04/24 09:49:51;;;;;;;1.23;0.90;;;;;;;30.43;35.38;90458.41;5053509;28;20513;-65
2022/04/24 09:52:22;;;;;;;1.42;1.30;;;;;;;29.80;33.72;90450.97;5053280;28;20017;-65
2022/04/24 09:54:50;;;;;;;1.40;0.88;;;;;;;31.23;31.68;90452.53;5053029;28;20029;-65
2022/04/24 09:57:18;;;;;;;2.70;2.20;;;;;;;33.41;29.63;90450.94;5053501;28;20092;-65
2022/04/24 09:59:45;;;;;;;15.82;9.02;;;;;;;32.89;30.40;90449.25;5053462;28;20475;-65
2022/04/24 10:02:12;;;;;;;1.25;1.15;;;;;;;32.18;30.52;90444.63;5052578;28;20025;-65
2022/04/24 10:04:39;;;;;;;1.70;1.20;;;;;;;30.52;32.30;90444.00;5052842;28;20033;-65
2022/04/24 10:07:06;;;;;;;0.93;0.75;;;;;;;30.10;33.23;90450.44;5052492;28;20025;-64
2022/04/24 10:09:43;;;;;;;1.45;1.35;;;;;;;30.02;32.32;90440.13;5052687;28;20041;-65
2022/04/24 10:12:18;;;;;;;1.40;1.10;;;;;;;29.16;34.33;90437.19;5053049;28;20075;-65
2022/04/24 10:14:51;;;;;;;1.65;1.08;;;;;;;30.35;33.83;90438.66;5052822;28;20032;-66
2022/04/24 10:17:53;;;;;;;0.90;0.90;;;;;;;31.42;33.19;90432.22;5052684;28;20078;-65
2022/04/24 10:20:29;;;;;;;1.40;1.27;;;;;;;32.79;31.79;90434.66;5052741;28;20032;-66
2022/04/24 10:22:56;;;;;;;2.35;1.65;;;;;;;32.23;32.08;90427.53;5052889;28;20083;-65
2022/04/24 10:25:32;;;;;;;2.45;1.20;;;;;;;31.43;31.38;90428.25;5052373;28;20108;-65
2022/04/24 10:28:12;;;;;;;0.70;0.70;;;;;;;30.55;33.73;90430.16;5051920;28;20044;-65
2022/04/24 10:30:38;;;;;;;0.90;0.90;;;;;;;30.98;33.29;90439.69;5052774;28;20032;-65
2022/04/24 10:33:22;;;;;;;1.60;1.40;;;;;;;31.81;31.45;90429.97;5052186;28;20029;-65
2022/04/24 10:35:53;;;;;;;1.98;1.60;;;;;;;31.45;32.79;90430.56;5052546;28;20025;-65
2022/04/24 10:38:21;;;;;;;1.55;1.45;;;;;;;30.91;31.30;90428.94;5052459;28;20102;-65
2022/04/24 10:41:06;;;;;;;1.00;0.90;;;;;;;29.78;33.07;90431.47;5034203;28;20082;-65
2022/04/24 10:43:45;;;;;;;1.52;1.02;;;;;;;29.61;34.17;90413.59;5052531;28;20021;-65
2022/04/24 10:46:25;;;;;;;1.20;1.02;;;;;;;31.03;32.97;90416.34;5051915;28;20047;-65
2022/04/24 10:48:51;;;;;;;1.35;1.20;;;;;;;30.22;32.38;90417.94;5052355;28;20064;-65
2022/04/24 10:51:28;;;;;;;1.00;0.90;;;;;;;28.92;35.60;90412.06;5052007;28;20063;-65
2022/04/24 10:54:08;;;;;;;0.80;0.80;;;;;;;30.05;34.34;90420.06;5051942;28;20025;-65
2022/04/24 10:56:35;;;;;;;0.80;0.75;;;;;;;30.72;32.42;90419.03;5052268;28;20028;-65
2022/04/24 10:59:16;;;;;;;0.90;0.88;;;;;;;30.00;33.72;90415.88;5052143;28;20024;-65
2022/04/24 11:01:52;;;;;;;1.85;0.93;;;;;;;29.54;33.40;90411.84;5051766;28;20025;-65
2022/04/24 11:04:19;;;;;;;1.20;1.10;;;;;;;29.15;34.02;90410.22;5051655;28;20029;-65
2022/04/24 11:06:59;;;;;;;1.13;1.08;;;;;;;29.48;33.41;90395.16;5052184;28;20035;-65
2022/04/24 11:09:33;;;;;;;0.85;0.85;;;;;;;28.75;34.03;90405.06;5051521;28;20472;-65
2022/04/24 11:12:08;;;;;;;1.58;1.10;;;;;;;29.28;35.34;90404.78;5051842;28;20029;-66
2022/04/24 11:14:35;;;;;;;0.80;0.80;;;;;;;30.09;33.15;90407.75;5051905;28;20085;-65
2022/04/24 11:17:05;;;;;;;1.77;1.00;;;;;;;29.46;35.20;90397.56;5050984;28;20052;-65
2022/04/24 11:19:34;;;;;;;1.20;1.10;;;;;;;30.01;35.32;90400.19;5051768;28;20033;-65
2022/04/24 11:22:11;;;;;;;6.07;1.55;;;;;;;31.46;32.68;90404.59;5051855;28;20033;-66
2022/04/24 11:24:38;;;;;;;0.80;0.80;;;;;;;31.00;32.03;90402.31;5051374;28;20040;-66
2022/04/24 11:27:12;;;;;;;1.00;0.90;;;;;;;29.81;34.33;90398.44;5051879;28;20107;-66
2022/04/24 11:29:42;;;;;;;1.55;1.45;;;;;;;28.75;35.70;90396.88;5051432;28;20032;-66
2022/04/24 11:32:08;;;;;;;5.25;1.20;;;;;;;28.08;37.70;90390.41;5051183;28;20056;-66
2022/04/24 11:34:35;;;;;;;1.40;1.30;;;;;;;29.23;34.70;90398.63;5051752;28;20129;-66